Terminal Aerodrome Forecast
Issued by NWS

Home | Current Version | Previous Version | Text Only | Print | Product List | Glossary On
Versions: 1 2 3 4 5 6 7 8 9 10 11 12 13 14 15 16 17 18 19 20 21 22 23 24 25
985
FTUS41 KPHI 190909 AAA
TAFPNE
TAF AMD
KPNE 190909Z 1909/2006 27003KT P6SM BKN030 OVC050
     FM190930 29005KT P6SM BKN035 BKN050
     FM191400 31007KT P6SM FEW050 SCT250
     FM191900 30008KT P6SM SCT025
     FM200000 35004KT P6SM SCT250=

USA.gov is the U.S. government's official web portal to all federal, state and local government web resources and services.